Time;durP1;ratioP1;P1;durP2;ratioP2;P2;SDS_P1;SDS_P2;PMS_P1;PMS_P2;Temp;Humidity;BMP_temperature;BMP_pressure;BME280_temperature;BME280_humidity;BME280_pressure;Samples;Min_cycle;Max_cycle;Signal;HPM_P1;HPM_P2
2023/09/15 00:01:40;;;;;;;6.60;3.97;;;;;;;13.76;67.79;102334.97;7393358;19;20011;-57
2023/09/15 00:04:09;;;;;;;6.03;3.65;;;;;;;13.64;68.27;102333.09;7392365;19;20022;-55
2023/09/15 00:06:39;;;;;;;8.02;3.90;;;;;;;13.59;68.31;102328.03;7391884;19;20022;-56
2023/09/15 00:09:14;;;;;;;6.80;4.07;;;;;;;13.51;68.43;102334.78;7393640;19;20019;-56
2023/09/15 00:11:42;;;;;;;8.13;4.22;;;;;;;13.00;70.00;102336.91;7393090;19;20124;-56
2023/09/15 00:14:13;;;;;;;7.22;4.05;;;;;;;12.89;70.48;102332.19;7390873;19;20089;-53
2023/09/15 00:16:42;;;;;;;8.85;4.57;;;;;;;13.18;69.25;102330.50;7392867;19;20018;-55
2023/09/15 00:19:14;;;;;;;9.68;4.93;;;;;;;13.01;69.49;102322.66;7392031;19;20022;-57
2023/09/15 00:21:43;;;;;;;7.70;4.32;;;;;;;12.74;70.95;102328.63;7393290;19;20046;-53
2023/09/15 00:24:10;;;;;;;6.90;3.80;;;;;;;12.98;70.13;102331.69;7392452;19;20018;-55
2023/09/15 00:26:38;;;;;;;7.70;4.07;;;;;;;13.24;69.17;102331.97;7390796;19;20519;-56
2023/09/15 00:29:07;;;;;;;7.28;4.82;;;;;;;12.95;69.90;102331.84;7393274;19;20501;-55
2023/09/15 00:31:36;;;;;;;7.13;4.30;;;;;;;12.69;71.02;102331.56;7391327;19;20046;-56
2023/09/15 00:34:04;;;;;;;6.57;3.90;;;;;;;12.96;69.82;102335.38;7390650;19;20487;-56
2023/09/15 00:36:32;;;;;;;8.07;4.05;;;;;;;13.15;68.97;102323.56;7392295;19;20355;-56
2023/09/15 00:39:01;;;;;;;9.10;4.32;;;;;;;13.07;69.05;102325.81;7390785;19;20027;-55
2023/09/15 00:41:29;;;;;;;7.40;4.38;;;;;;;12.95;69.61;102328.34;7392147;19;20011;-54
2023/09/15 00:43:57;;;;;;;6.60;4.22;;;;;;;12.92;69.68;102327.56;7391559;19;20014;-55
2023/09/15 00:46:25;;;;;;;7.57;4.63;;;;;;;12.59;70.55;102321.53;7391969;19;20490;-56
2023/09/15 00:48:55;;;;;;;9.15;4.43;;;;;;;12.43;71.46;102324.19;7392019;19;20014;-55
2023/09/15 00:51:24;;;;;;;7.10;4.32;;;;;;;12.29;72.07;102317.03;7391746;19;20034;-56
2023/09/15 00:53:54;;;;;;;7.25;4.53;;;;;;;12.69;71.01;102325.38;7390778;19;20378;-55
2023/09/15 00:56:22;;;;;;;8.02;4.50;;;;;;;12.92;69.62;102313.41;7390037;19;20046;-57
2023/09/15 00:58:49;;;;;;;7.28;4.47;;;;;;;13.01;69.63;102320.00;7391585;19;20490;-57
2023/09/15 01:01:18;;;;;;;5.85;4.07;;;;;;;13.10;69.02;102314.16;7391800;19;20029;-57
2023/09/15 01:03:46;;;;;;;8.52;4.78;;;;;;;12.88;69.67;102315.41;7390922;19;20078;-58
2023/09/15 01:06:16;;;;;;;7.40;4.57;;;;;;;12.55;71.17;102320.00;7389413;19;20019;-57
2023/09/15 01:08:43;;;;;;;7.30;4.43;;;;;;;12.63;70.71;102307.13;7391608;19;20356;-54
2023/09/15 01:11:10;;;;;;;7.20;4.18;;;;;;;12.86;69.81;102298.69;7392054;19;20378;-54
2023/09/15 01:13:38;;;;;;;5.38;4.03;;;;;;;13.02;69.12;102303.97;7391255;19;20038;-53
2023/09/15 01:16:08;;;;;;;6.70;4.00;;;;;;;12.99;69.17;102311.25;7387863;19;20039;-53
2023/09/15 01:18:49;;;;;;;6.45;4.18;;;;;;;13.01;69.06;102310.22;7391848;19;20475;-53
2023/09/15 01:21:35;;;;;;;5.55;4.03;;;;;;;13.01;68.88;102310.22;7391984;19;20018;-53
2023/09/15 01:24:15;;;;;;;7.03;4.13;;;;;;;12.39;71.13;102310.22;7390863;19;20017;-53
2023/09/15 01:27:12;;;;;;;6.65;3.92;;;;;;;12.64;70.33;102315.03;7390239;19;20022;-53
2023/09/15 01:29:39;;;;;;;6.47;4.00;;;;;;;12.40;71.09;102308.44;7391911;19;20022;-53
2023/09/15 01:32:09;;;;;;;8.05;4.05;;;;;;;12.60;70.66;102308.16;7395359;19;20050;-53
2023/09/15 01:34:37;;;;;;;6.40;3.58;;;;;;;12.67;70.13;102301.56;7396293;19;20026;-56
2023/09/15 01:37:05;;;;;;;7.15;3.88;;;;;;;12.72;69.84;102298.63;7398488;19;20020;-57
2023/09/15 01:39:33;;;;;;;7.15;3.92;;;;;;;12.70;69.60;102295.19;7396573;19;20023;-57
2023/09/15 01:42:00;;;;;;;6.78;3.90;;;;;;;12.74;69.39;102306.50;7398221;19;20018;-56
2023/09/15 01:44:28;;;;;;;4.97;3.65;;;;;;;12.48;70.43;102297.38;7396527;19;20087;-57
2023/09/15 01:46:56;;;;;;;7.47;4.28;;;;;;;12.42;70.25;102288.81;7398322;19;20040;-57
2023/09/15 01:49:24;;;;;;;6.88;3.90;;;;;;;12.31;70.35;102290.34;7398272;19;20015;-57
2023/09/15 01:51:53;;;;;;;7.45;4.03;;;;;;;11.94;71.71;102287.97;7397439;19;20490;-57
2023/09/15 01:54:21;;;;;;;5.28;3.80;;;;;;;12.07;72.00;102296.09;7396019;19;20408;-56
2023/09/15 01:56:49;;;;;;;6.40;3.58;;;;;;;12.05;71.18;102290.00;7395994;19;20042;-57
2023/09/15 01:59:17;;;;;;;7.32;3.67;;;;;;;11.86;71.94;102291.97;7398163;19;20392;-57
2023/09/15 02:01:44;;;;;;;5.45;3.70;;;;;;;12.26;70.90;102293.28;7397362;19;20351;-56
2023/09/15 02:04:12;;;;;;;5.93;3.90;;;;;;;12.42;70.01;102293.28;7397080;19;20010;-55
2023/09/15 02:06:40;;;;;;;5.65;3.78;;;;;;;12.57;69.56;102291.53;7397219;19;20023;-56
2023/09/15 02:09:08;;;;;;;5.55;3.30;;;;;;;12.54;69.80;102297.03;7396349;19;20019;-54
2023/09/15 02:11:35;;;;;;;6.65;3.60;;;;;;;12.60;69.40;102296.69;7397250;19;20022;-54
2023/09/15 02:14:03;;;;;;;5.43;3.53;;;;;;;12.55;69.38;102290.75;7396399;19;20015;-56
2023/09/15 02:16:31;;;;;;;6.45;3.60;;;;;;;12.57;69.67;102289.72;7396885;19;20026;-58
2023/09/15 02:19:00;;;;;;;7.15;3.50;;;;;;;12.61;68.93;102280.63;7395413;19;20482;-55
2023/09/15 02:21:27;;;;;;;4.75;3.45;;;;;;;12.60;69.14;102284.25;7397376;19;20372;-56
2023/09/15 02:23:55;;;;;;;6.32;3.90;;;;;;;12.56;69.18;102285.38;7396587;19;20042;-57
2023/09/15 02:26:22;;;;;;;5.80;3.85;;;;;;;12.48;69.57;102278.75;7397017;19;20022;-56
2023/09/15 02:28:50;;;;;;;7.18;3.97;;;;;;;12.48;69.50;102284.06;7396875;19;20457;-54
2023/09/15 02:31:18;;;;;;;6.38;3.90;;;;;;;12.42;70.02;102279.97;7397123;19;20050;-53
2023/09/15 02:33:45;;;;;;;6.60;4.03;;;;;;;12.39;69.89;102281.00;7395305;19;20023;-54
2023/09/15 02:36:13;;;;;;;6.90;4.10;;;;;;;12.37;70.02;102282.91;7396519;19;20019;-53
2023/09/15 02:38:40;;;;;;;6.68;4.00;;;;;;;12.39;70.12;102280.16;7394657;19;20518;-53
2023/09/15 02:41:08;;;;;;;5.50;3.97;;;;;;;12.43;69.74;102273.72;7396429;19;20085;-53
2023/09/15 02:43:35;;;;;;;7.15;3.83;;;;;;;12.43;69.58;102271.91;7395274;19;20019;-52
2023/09/15 02:46:04;;;;;;;5.80;3.75;;;;;;;12.48;69.45;102276.09;7392802;19;20022;-54
2023/09/15 02:48:32;;;;;;;6.38;4.07;;;;;;;12.45;69.32;102269.19;7395888;19;20018;-53
2023/09/15 02:51:00;;;;;;;7.78;4.03;;;;;;;12.46;69.41;102275.34;7396488;19;20014;-53
2023/09/15 02:53:29;;;;;;;8.10;4.25;;;;;;;12.42;69.39;102267.56;7396431;19;20096;-54
2023/09/15 02:56:04;;;;;;;6.95;4.10;;;;;;;12.31;69.42;102266.44;7392060;19;20028;-53
2023/09/15 02:58:32;;;;;;;6.75;4.35;;;;;;;11.67;71.59;102273.47;7396484;19;20042;-55
2023/09/15 03:01:09;;;;;;;6.25;4.05;;;;;;;11.85;71.27;102269.00;7395836;19;20022;-55
2023/09/15 03:03:37;;;;;;;7.88;3.95;;;;;;;12.13;70.47;102269.22;7394203;19;20475;-55
2023/09/15 03:06:06;;;;;;;7.20;3.83;;;;;;;12.30;69.60;102265.59;7392447;19;20023;-55
2023/09/15 03:08:35;;;;;;;6.43;4.00;;;;;;;12.07;69.91;102274.84;7395910;19;20042;-53
2023/09/15 03:11:02;;;;;;;6.60;3.90;;;;;;;11.74;71.25;102279.31;7396451;19;20019;-56
2023/09/15 03:13:29;;;;;;;5.18;3.53;;;;;;;11.97;70.55;102275.44;7396148;19;20014;-55
2023/09/15 03:16:07;;;;;;;4.75;3.20;;;;;;;12.09;69.90;102272.09;7393813;19;20011;-53
2023/09/15 03:18:36;;;;;;;5.50;3.35;;;;;;;12.04;69.82;102266.19;7396514;19;20077;-53
2023/09/15 03:21:05;;;;;;;5.97;3.50;;;;;;;12.05;69.82;102270.56;7396251;19;20014;-54
2023/09/15 03:23:32;;;;;;;6.10;3.40;;;;;;;11.98;70.11;102263.88;7394644;19;20015;-57
2023/09/15 03:26:04;;;;;;;4.32;3.20;;;;;;;11.97;70.27;102262.16;7392114;19;20059;-58
2023/09/15 03:28:33;;;;;;;4.57;3.13;;;;;;;12.03;70.05;102269.81;7395725;19;20035;-55
2023/09/15 03:31:03;;;;;;;5.38;3.17;;;;;;;12.06;69.91;102270.50;7395871;19;20010;-52
2023/09/15 03:33:32;;;;;;;6.53;3.22;;;;;;;12.00;70.04;102269.97;7395637;19;20038;-52
2023/09/15 03:36:00;;;;;;;5.25;3.33;;;;;;;11.97;70.10;102268.34;7392963;19;20018;-51
2023/09/15 03:38:28;;;;;;;5.82;3.35;;;;;;;12.01;70.04;102266.38;7395053;19;20120;-55
2023/09/15 03:40:56;;;;;;;6.45;3.30;;;;;;;11.85;69.97;102261.91;7394748;19;20119;-55
2023/09/15 03:43:23;;;;;;;4.43;3.08;;;;;;;11.84;70.27;102262.84;7394232;19;20023;-55
2023/09/15 03:45:52;;;;;;;5.43;2.90;;;;;;;11.82;70.40;102263.84;7391790;19;20018;-51
2023/09/15 03:48:20;;;;;;;3.70;2.80;;;;;;;11.84;70.33;102257.53;7394300;19;20480;-52
2023/09/15 03:50:48;;;;;;;5.53;3.28;;;;;;;11.91;70.17;102264.25;7393785;19;20019;-53
2023/09/15 03:53:15;;;;;;;5.60;2.88;;;;;;;11.94;69.75;102264.06;7391037;19;20022;-56
2023/09/15 03:55:43;;;;;;;5.13;2.85;;;;;;;11.99;69.63;102255.84;7390462;19;20031;-52
2023/09/15 03:58:11;;;;;;;5.05;2.70;;;;;;;12.00;69.40;102260.19;7394380;19;20025;-51
2023/09/15 04:00:38;;;;;;;4.65;3.00;;;;;;;11.94;69.64;102252.56;7394216;19;20039;-53
2023/09/15 04:03:06;;;;;;;5.75;2.53;;;;;;;11.98;69.48;102242.63;7393771;19;20498;-53
2023/09/15 04:05:34;;;;;;;4.30;2.60;;;;;;;11.98;69.37;102242.63;7392518;19;20120;-53
2023/09/15 04:08:02;;;;;;;5.10;2.70;;;;;;;11.98;69.65;102246.19;7392476;19;20014;-57
2023/09/15 04:10:29;;;;;;;4.72;2.90;;;;;;;12.02;69.45;102244.19;7393282;19;20014;-60
2023/09/15 04:12:57;;;;;;;4.05;2.55;;;;;;;11.99;69.13;102244.38;7393774;19;20471;-55
2023/09/15 04:15:25;;;;;;;4.40;2.60;;;;;;;11.92;69.31;102243.84;7391521;19;20042;-54
2023/09/15 04:17:54;;;;;;;4.40;2.60;;;;;;;11.93;69.15;102246.41;7393320;19;20028;-57
2023/09/15 04:20:22;;;;;;;5.20;2.53;;;;;;;11.90;69.00;102240.41;7394184;19;20030;-59
2023/09/15 04:23:09;;;;;;;4.70;2.80;;;;;;;11.76;69.74;102243.81;7389562;19;20473;-59
2023/09/15 04:25:37;;;;;;;4.60;2.50;;;;;;;11.74;69.89;102243.03;7390666;19;20018;-58
2023/09/15 04:28:04;;;;;;;5.15;2.67;;;;;;;11.66;69.93;102238.13;7392430;19;20044;-59
2023/09/15 04:30:32;;;;;;;5.55;2.70;;;;;;;11.73;69.86;102238.66;7392601;19;20011;-60
2023/09/15 04:32:59;;;;;;;4.82;2.55;;;;;;;11.73;69.84;102238.66;7390919;19;20014;-60
2023/09/15 04:35:27;;;;;;;4.35;2.50;;;;;;;11.75;69.53;102234.09;7390470;19;20355;-59
2023/09/15 04:37:55;;;;;;;6.20;3.05;;;;;;;11.65;69.65;102239.06;7392611;19;20494;-59
2023/09/15 04:40:23;;;;;;;6.57;2.70;;;;;;;11.27;70.95;102227.88;7392703;19;20830;-56
2023/09/15 04:42:51;;;;;;;5.25;2.92;;;;;;;10.95;71.88;102235.72;7391005;19;20020;-61
2023/09/15 04:45:18;;;;;;;5.05;2.80;;;;;;;10.96;72.30;102229.47;7390456;19;20372;-59
2023/09/15 04:47:46;;;;;;;5.97;2.78;;;;;;;11.18;71.89;102231.00;7391465;19;20018;-58
2023/09/15 04:50:13;;;;;;;5.07;2.88;;;;;;;11.46;70.54;102235.72;7392290;19;20023;-59
2023/09/15 04:52:41;;;;;;;7.15;3.95;;;;;;;11.67;70.16;102236.34;7392011;19;20014;-60
2023/09/15 04:55:08;;;;;;;7.63;4.20;;;;;;;11.76;69.72;102238.50;7389672;19;20019;-60
2023/09/15 04:57:36;;;;;;;9.57;4.85;;;;;;;11.23;70.95;102234.28;7391198;19;20023;-58
2023/09/15 05:00:12;;;;;;;7.53;3.80;;;;;;;10.95;72.13;102240.13;7390076;19;20035;-59
2023/09/15 05:02:45;;;;;;;7.07;3.72;;;;;;;10.71;73.12;102244.91;7391589;19;20018;-60
2023/09/15 05:05:13;;;;;;;8.80;4.18;;;;;;;10.77;72.83;102241.09;7392234;19;20086;-60
2023/09/15 05:07:41;;;;;;;7.70;4.25;;;;;;;10.55;73.78;102254.56;7399498;19;20019;-62
2023/09/15 05:10:08;;;;;;;7.47;4.32;;;;;;;10.67;73.30;102244.19;7398634;19;20022;-60
2023/09/15 05:12:36;;;;;;;10.30;4.28;;;;;;;10.42;73.94;102251.66;7398615;19;20018;-60
2023/09/15 05:15:04;;;;;;;9.23;4.50;;;;;;;10.69;73.83;102249.44;7396424;19;20018;-59
2023/09/15 05:17:32;;;;;;;6.65;3.83;;;;;;;11.17;71.77;102250.50;7399337;19;20029;-59
2023/09/15 05:20:00;;;;;;;7.15;3.72;;;;;;;11.29;71.37;102241.03;7398789;19;20014;-60
2023/09/15 05:22:28;;;;;;;9.52;4.30;;;;;;;11.43;70.42;102247.31;7397223;19;20489;-59
2023/09/15 05:24:55;;;;;;;8.07;3.95;;;;;;;11.02;71.85;102236.25;7396724;19;20027;-60
2023/09/15 05:27:23;;;;;;;7.53;4.05;;;;;;;11.02;71.88;102238.88;7397611;19;20015;-59
2023/09/15 05:29:53;;;;;;;6.05;3.50;;;;;;;10.96;72.37;102245.38;7398863;19;20018;-59
2023/09/15 05:32:21;;;;;;;6.53;3.03;;;;;;;10.91;72.69;102250.06;7398931;19;20380;-60
2023/09/15 05:34:48;;;;;;;4.97;2.88;;;;;;;10.79;73.50;102250.66;7396452;19;20032;-60
2023/09/15 05:37:16;;;;;;;4.75;3.00;;;;;;;10.84;73.55;102255.75;7398324;19;20035;-59
2023/09/15 05:39:44;;;;;;;6.53;3.08;;;;;;;10.88;73.84;102250.22;7398116;19;20018;-59
2023/09/15 05:42:12;;;;;;;7.05;3.28;;;;;;;10.85;74.49;102252.16;7397156;19;20022;-60
2023/09/15 05:44:39;;;;;;;4.90;3.00;;;;;;;11.15;73.91;102253.25;7399686;19;20046;-62
2023/09/15 05:47:07;;;;;;;5.88;2.80;;;;;;;11.55;72.35;102255.56;7400939;19;20014;-60
2023/09/15 05:49:34;;;;;;;5.32;2.47;;;;;;;11.49;72.55;102253.28;7398054;19;20025;-62
2023/09/15 05:52:02;;;;;;;6.22;2.72;;;;;;;11.44;73.22;102248.19;7399082;19;20029;-59
2023/09/15 05:54:30;;;;;;;5.93;2.70;;;;;;;11.67;72.67;102250.44;7396298;19;20026;-60
2023/09/15 05:56:58;;;;;;;3.88;2.53;;;;;;;11.80;71.74;102245.34;7395153;19;20506;-58
2023/09/15 05:59:28;;;;;;;4.85;2.42;;;;;;;11.88;71.34;102250.28;7399149;19;20021;-56
2023/09/15 06:01:56;;;;;;;3.97;2.45;;;;;;;11.91;71.13;102242.16;7398438;19;20031;-58
2023/09/15 06:04:23;;;;;;;3.95;2.17;;;;;;;11.93;71.18;102243.75;7396972;19;20043;-56
2023/09/15 06:06:51;;;;;;;4.20;2.40;;;;;;;12.03;71.07;102245.91;7397310;19;20086;-56
2023/09/15 06:09:19;;;;;;;6.18;2.97;;;;;;;12.12;71.26;102246.25;7402093;19;20022;-56
2023/09/15 06:11:47;;;;;;;4.68;2.20;;;;;;;12.18;71.08;102245.06;7396047;19;20081;-57
2023/09/15 06:14:14;;;;;;;3.88;2.20;;;;;;;12.22;71.08;102243.09;7398915;19;20018;-58
2023/09/15 06:16:42;;;;;;;6.88;2.25;;;;;;;12.25;71.37;102238.47;7391429;19;20018;-59
2023/09/15 06:19:10;;;;;;;5.28;2.40;;;;;;;12.26;71.25;102242.81;7397282;19;20015;-59
2023/09/15 06:21:37;;;;;;;4.65;2.25;;;;;;;12.25;71.40;102242.88;7396747;19;20464;-60
2023/09/15 06:24:05;;;;;;;5.03;2.25;;;;;;;12.31;71.37;102239.88;7396398;19;20546;-59
2023/09/15 06:26:33;;;;;;;8.07;2.50;;;;;;;12.44;71.37;102251.53;7400276;19;20026;-59
2023/09/15 06:29:01;;;;;;;3.95;2.28;;;;;;;12.51;71.08;102249.38;7400825;19;20640;-58
2023/09/15 06:31:28;;;;;;;5.93;2.35;;;;;;;12.54;71.70;102251.84;7399486;19;20022;-58
2023/09/15 06:33:56;;;;;;;5.65;2.25;;;;;;;12.60;71.71;102249.69;7398906;19;20006;-58
2023/09/15 06:36:26;;;;;;;5.78;2.60;;;;;;;12.65;71.89;102247.63;7398636;19;20030;-57
2023/09/15 06:38:53;;;;;;;6.57;2.40;;;;;;;12.62;72.45;102246.94;7400826;19;20098;-60
2023/09/15 06:41:21;;;;;;;6.57;2.72;;;;;;;12.73;72.69;102243.66;7399876;19;20029;-56
2023/09/15 06:43:48;;;;;;;6.60;2.75;;;;;;;12.85;72.66;102238.47;7399031;19;20013;-57
2023/09/15 06:46:21;;;;;;;5.82;2.40;;;;;;;13.06;72.01;102240.81;7400095;19;20082;-57
2023/09/15 06:48:50;;;;;;;4.32;2.63;;;;;;;13.14;71.54;102236.72;7398721;19;20011;-58
2023/09/15 06:51:17;;;;;;;5.85;2.97;;;;;;;13.18;71.41;102230.28;7399342;19;20042;-58
2023/09/15 06:53:45;;;;;;;5.97;2.42;;;;;;;13.33;71.40;102233.84;7399621;19;20430;-59
2023/09/15 06:56:12;;;;;;;6.03;2.80;;;;;;;13.46;71.21;102238.38;7398445;19;20120;-59
2023/09/15 06:58:40;;;;;;;6.70;3.03;;;;;;;13.49;71.29;102232.88;7399497;19;20078;-58
2023/09/15 07:01:08;;;;;;;8.13;2.70;;;;;;;13.50;71.44;102235.44;7399406;19;20019;-58
2023/09/15 07:03:35;;;;;;;6.82;2.88;;;;;;;13.50;71.83;102237.25;7398042;19;20089;-58
2023/09/15 07:06:03;;;;;;;7.25;2.83;;;;;;;13.53;71.80;102235.25;7395847;19;20026;-59
2023/09/15 07:08:31;;;;;;;6.97;2.40;;;;;;;13.62;71.45;102236.47;7397221;19;20034;-59
2023/09/15 07:10:58;;;;;;;4.95;2.75;;;;;;;13.81;71.27;102238.84;7397341;19;20014;-59
2023/09/15 07:13:26;;;;;;;5.38;2.90;;;;;;;13.82;71.42;102229.91;7399053;19;20479;-58
2023/09/15 07:15:53;;;;;;;6.13;2.75;;;;;;;13.88;71.88;102234.81;7393847;19;20015;-59
2023/09/15 07:18:21;;;;;;;6.18;2.67;;;;;;;13.94;72.05;102225.59;7398729;19;20026;-58
2023/09/15 07:20:48;;;;;;;8.98;3.08;;;;;;;14.07;71.75;102226.50;7399162;19;20046;-57
2023/09/15 07:23:16;;;;;;;7.60;3.22;;;;;;;14.19;71.66;102227.53;7397561;19;20528;-59
2023/09/15 07:25:47;;;;;;;8.18;3.40;;;;;;;14.24;71.49;102226.28;7394055;19;20090;-60
2023/09/15 07:28:18;;;;;;;6.38;2.80;;;;;;;14.32;71.63;102223.97;7396890;19;20094;-59
2023/09/15 07:30:46;;;;;;;6.85;3.00;;;;;;;14.43;71.43;102222.41;7397448;19;20022;-60
2023/09/15 07:33:13;;;;;;;7.22;2.65;;;;;;;14.52;70.92;102216.47;7397625;19;20031;-57
2023/09/15 07:35:41;;;;;;;7.75;3.50;;;;;;;14.57;70.92;102214.34;7396410;19;20078;-59
2023/09/15 07:38:09;;;;;;;5.10;2.55;;;;;;;14.67;71.00;102214.59;7396399;19;20035;-57
2023/09/15 07:40:36;;;;;;;7.88;2.80;;;;;;;14.78;70.39;102206.72;7398009;19;20086;-58
2023/09/15 07:43:04;;;;;;;8.65;2.95;;;;;;;14.90;70.35;102210.38;7397709;19;20022;-59
2023/09/15 07:45:31;;;;;;;6.80;2.78;;;;;;;14.92;70.36;102209.31;7396898;19;20011;-60
2023/09/15 07:47:59;;;;;;;6.85;2.75;;;;;;;15.01;69.56;102207.81;7399113;19;20018;-60
2023/09/15 07:50:28;;;;;;;6.90;2.45;;;;;;;15.09;68.80;102208.97;7397775;19;20014;-59
2023/09/15 07:52:55;;;;;;;9.98;2.72;;;;;;;15.18;68.21;102210.16;7397989;19;20014;-61
2023/09/15 07:55:23;;;;;;;6.93;2.67;;;;;;;15.22;67.62;102202.78;7397112;19;20015;-58
2023/09/15 07:57:50;;;;;;;7.80;2.72;;;;;;;15.31;67.07;102211.00;7398452;19;20517;-60
2023/09/15 08:00:18;;;;;;;10.32;2.92;;;;;;;15.34;67.04;102209.97;7397986;19;20034;-59
2023/09/15 08:02:46;;;;;;;6.18;2.72;;;;;;;15.41;66.81;102207.69;7396941;19;20530;-59
2023/09/15 08:05:14;;;;;;;6.80;2.75;;;;;;;15.46;66.34;102203.75;7396964;19;20373;-60
2023/09/15 08:07:48;;;;;;;5.95;2.35;;;;;;;15.49;66.04;102206.19;7397385;19;20015;-59
2023/09/15 08:10:18;;;;;;;6.97;2.50;;;;;;;15.55;65.81;102202.22;7397345;19;20022;-59
2023/09/15 08:12:48;;;;;;;6.68;2.65;;;;;;;15.64;66.13;102198.03;7396453;19;20022;-59
2023/09/15 08:15:16;;;;;;;9.43;2.90;;;;;;;15.67;66.18;102193.34;7395310;19;20014;-60
2023/09/15 08:17:44;;;;;;;7.40;2.72;;;;;;;15.74;66.07;102188.44;7395054;19;20600;-60
2023/09/15 08:20:13;;;;;;;6.88;2.50;;;;;;;15.77;65.87;102188.22;7396042;19;20035;-60
2023/09/15 08:22:42;;;;;;;8.80;2.72;;;;;;;15.88;65.51;102187.44;7395017;19;20022;-59
2023/09/15 08:25:14;;;;;;;7.13;2.40;;;;;;;15.95;65.18;102183.31;7394777;19;20018;-60
2023/09/15 08:27:44;;;;;;;7.97;2.60;;;;;;;16.02;65.17;102189.94;7397022;19;20043;-60
2023/09/15 08:30:12;;;;;;;6.53;2.58;;;;;;;16.09;64.73;102192.03;7395901;19;20014;-60
2023/09/15 08:32:39;;;;;;;8.02;2.88;;;;;;;16.19;64.71;102186.03;7394850;19;20015;-60
2023/09/15 08:35:07;;;;;;;7.30;2.88;;;;;;;16.23;64.74;102177.66;7394476;19;20018;-60
2023/09/15 08:37:34;;;;;;;8.68;2.85;;;;;;;16.29;64.65;102179.88;7394015;19;20042;-60
2023/09/15 08:40:02;;;;;;;7.15;2.70;;;;;;;16.37;64.92;102178.41;7393157;19;20139;-60
2023/09/15 08:42:29;;;;;;;7.82;2.90;;;;;;;16.45;64.82;102171.56;7394343;19;20029;-57
2023/09/15 08:44:59;;;;;;;8.60;2.72;;;;;;;16.55;64.90;102171.69;7393395;19;20018;-62
2023/09/15 08:47:31;;;;;;;8.68;2.80;;;;;;;16.60;64.55;102174.00;7395122;19;20356;-59
2023/09/15 08:50:01;;;;;;;10.05;2.90;;;;;;;16.65;64.63;102178.03;7395884;19;20022;-61
2023/09/15 08:52:33;;;;;;;6.75;2.55;;;;;;;16.65;64.30;102177.19;7393059;19;20019;-59
2023/09/15 08:55:02;;;;;;;5.50;2.30;;;;;;;16.68;64.42;102172.47;7392015;19;20035;-60
2023/09/15 08:57:30;;;;;;;13.00;3.05;;;;;;;16.74;64.25;102168.47;7394497;19;20042;-59
2023/09/15 08:59:59;;;;;;;9.65;3.25;;;;;;;16.79;64.03;102179.69;7395786;19;20015;-61
2023/09/15 09:02:26;;;;;;;8.07;2.85;;;;;;;16.80;63.95;102165.34;7395364;19;20018;-60
2023/09/15 09:04:54;;;;;;;8.82;3.38;;;;;;;16.91;64.25;102175.22;7392722;19;20026;-62
2023/09/15 09:07:23;;;;;;;8.68;2.92;;;;;;;16.95;63.96;102169.50;7395795;19;20022;-61
2023/09/15 09:09:51;;;;;;;8.57;3.00;;;;;;;17.00;64.02;102172.66;7393226;19;20648;-60
2023/09/15 09:12:20;;;;;;;7.80;3.10;;;;;;;17.03;64.02;102167.06;7395186;19;20011;-60
2023/09/15 09:14:54;;;;;;;7.72;2.90;;;;;;;17.08;64.35;102165.88;7393894;19;20018;-59
2023/09/15 09:17:23;;;;;;;6.68;2.88;;;;;;;17.11;64.62;102161.13;7393042;19;20018;-60
2023/09/15 09:19:50;;;;;;;8.30;2.85;;;;;;;17.22;64.22;102154.91;7393935;19;20010;-59
2023/09/15 09:22:19;;;;;;;7.18;2.72;;;;;;;17.27;64.17;102160.75;7394841;19;20019;-58
2023/09/15 09:24:57;;;;;;;10.45;2.92;;;;;;;17.33;63.61;102159.44;7391667;19;20039;-55
2023/09/15 09:27:35;;;;;;;6.90;2.30;;;;;;;17.34;63.64;102150.41;7395697;19;20021;-57
2023/09/15 09:30:03;;;;;;;4.93;2.50;;;;;;;17.32;64.00;102155.03;7395526;19;20025;-58
2023/09/15 09:32:31;;;;;;;9.20;2.90;;;;;;;17.40;63.59;102155.25;7394154;19;20014;-58
2023/09/15 09:34:58;;;;;;;6.82;2.63;;;;;;;17.49;63.92;102152.72;7391676;19;20018;-58
2023/09/15 09:37:26;;;;;;;7.45;2.50;;;;;;;17.52;63.50;102147.09;7392476;19;20526;-59
2023/09/15 09:39:54;;;;;;;6.78;3.10;;;;;;;17.58;63.77;102156.47;7392649;19;20011;-59
2023/09/15 09:42:26;;;;;;;7.80;2.65;;;;;;;17.64;63.56;102160.47;7394501;19;20007;-59
2023/09/15 09:44:55;;;;;;;9.27;3.10;;;;;;;17.61;63.51;102137.47;7392945;19;20589;-59
2023/09/15 09:47:22;;;;;;;8.85;2.72;;;;;;;17.65;64.10;102146.94;7392406;19;20023;-59
2023/09/15 09:49:51;;;;;;;6.30;2.67;;;;;;;17.77;64.35;102134.41;7393118;19;20072;-58
2023/09/15 09:52:23;;;;;;;7.80;2.78;;;;;;;17.88;63.87;102128.19;7395529;19;20043;-59
2023/09/15 09:54:51;;;;;;;5.78;2.70;;;;;;;17.88;63.58;102122.81;7398679;19;20026;-59
2023/09/15 09:57:20;;;;;;;7.60;3.22;;;;;;;17.89;63.16;102124.50;7399663;19;20003;-58
2023/09/15 09:59:48;;;;;;;7.47;2.78;;;;;;;17.94;63.34;102130.34;7400011;19;20042;-59
2023/09/15 10:02:15;;;;;;;6.97;2.95;;;;;;;18.04;63.02;102120.56;7403032;19;20015;-58
2023/09/15 10:04:43;;;;;;;7.55;2.72;;;;;;;18.06;62.73;102129.34;7398327;19;20657;-58
2023/09/15 10:07:11;;;;;;;8.00;2.90;;;;;;;18.14;63.02;102124.16;7406543;19;20010;-59
2023/09/15 10:09:39;;;;;;;9.30;2.70;;;;;;;18.19;62.07;102121.94;7402341;19;20025;-58
2023/09/15 10:12:11;;;;;;;7.18;3.00;;;;;;;18.21;62.01;102122.69;7401305;19;20014;-59
2023/09/15 10:14:39;;;;;;;8.73;2.67;;;;;;;18.25;62.12;102121.44;7400172;19;20022;-57
2023/09/15 10:17:07;;;;;;;7.40;2.58;;;;;;;18.31;62.64;102120.06;7399008;19;20035;-58
2023/09/15 10:19:35;;;;;;;6.40;2.80;;;;;;;18.31;62.50;102105.81;7401634;19;20377;-54
2023/09/15 10:22:04;;;;;;;7.05;2.97;;;;;;;18.32;62.07;102107.53;7399985;19;20463;-59
2023/09/15 10:24:32;;;;;;;8.45;3.03;;;;;;;18.40;61.93;102099.66;7397804;19;20006;-57
2023/09/15 10:26:59;;;;;;;7.10;2.40;;;;;;;18.44;62.21;102099.28;7399386;19;20479;-58
2023/09/15 10:29:31;;;;;;;7.32;2.60;;;;;;;18.47;61.72;102098.16;7398800;19;20479;-58
2023/09/15 10:32:03;;;;;;;8.75;2.85;;;;;;;18.44;61.52;102101.09;7397946;19;20376;-58
2023/09/15 10:34:32;;;;;;;9.50;3.03;;;;;;;18.42;62.12;102093.16;7398331;19;20018;-58
2023/09/15 10:37:02;;;;;;;9.05;3.03;;;;;;;18.50;61.99;102095.19;7398377;19;20017;-57
2023/09/15 10:39:37;;;;;;;10.25;3.15;;;;;;;18.54;61.66;102088.59;7400300;19;20022;-57
2023/09/15 10:42:06;;;;;;;6.55;2.67;;;;;;;18.53;61.57;102089.56;7397595;19;20018;-57
2023/09/15 10:44:34;;;;;;;7.03;2.70;;;;;;;18.56;61.34;102093.84;7396969;19;20011;-57
2023/09/15 10:47:02;;;;;;;7.20;2.70;;;;;;;18.58;61.68;102091.84;7398367;19;20014;-57
2023/09/15 10:49:30;;;;;;;7.55;2.63;;;;;;;18.66;62.26;102090.22;7398843;19;20015;-58
2023/09/15 10:52:00;;;;;;;7.97;2.53;;;;;;;18.72;61.46;102087.03;7397656;19;20539;-57
2023/09/15 10:54:33;;;;;;;7.18;2.47;;;;;;;18.77;61.18;102085.78;7397877;19;20037;-57
2023/09/15 10:57:01;;;;;;;6.00;2.27;;;;;;;18.73;61.10;102086.06;7399361;19;20015;-57
2023/09/15 10:59:29;;;;;;;7.00;2.70;;;;;;;18.78;60.97;102082.13;7396979;19;20015;-58
2023/09/15 11:01:58;;;;;;;6.82;2.78;;;;;;;18.88;61.17;102072.25;7397221;19;20074;-58
2023/09/15 11:04:28;;;;;;;6.80;2.70;;;;;;;18.94;61.24;102072.59;7397543;19;20014;-58
2023/09/15 11:06:56;;;;;;;6.15;2.38;;;;;;;19.03;60.62;102068.22;7398581;19;20021;-59
2023/09/15 11:09:25;;;;;;;6.30;2.60;;;;;;;19.05;61.00;102066.28;7395137;19;20017;-58
2023/09/15 11:11:53;;;;;;;8.75;3.38;;;;;;;19.06;60.59;102067.13;7398149;19;20015;-58
2023/09/15 11:14:22;;;;;;;7.85;2.80;;;;;;;19.05;61.03;102060.91;7397261;19;20069;-58
2023/09/15 11:16:52;;;;;;;5.53;2.47;;;;;;;19.09;60.48;102062.31;7397308;19;20014;-58
2023/09/15 11:19:22;;;;;;;6.55;2.67;;;;;;;19.06;61.19;102054.53;7397008;19;20018;-58
2023/09/15 11:21:50;;;;;;;6.70;2.72;;;;;;;19.12;60.37;102058.53;7398440;19;20911;-55
2023/09/15 11:24:18;;;;;;;6.80;2.65;;;;;;;19.30;60.03;102046.09;7397169;19;20042;-58
2023/09/15 11:26:50;;;;;;;5.85;2.83;;;;;;;19.30;59.56;102047.94;7397560;19;20469;-58
2023/09/15 11:29:31;;;;;;;7.15;2.58;;;;;;;19.28;59.60;102048.09;7396355;19;20018;-59
2023/09/15 11:32:00;;;;;;;6.15;2.55;;;;;;;19.27;60.45;102053.59;7398570;19;20402;-59